Bright Shade, Kentucky
Current Conditions -  °F | °C
As of 12:53 PM on Sunday 23 Nov 2014 (Local Time) from KLOZ Reporting Station
Light Rain Light Rain  
Wind Chill: 58°   Ceiling: 6500
Heat Index: 58°   Visibility: 9mi
Dew Point: 47°   Wind: 10mph
Humidity: 67%   Direction: 140°SE
Pressure: 29.83"   Gusts: NA
Location:  37.1101°N, 83.7537°W
Report Text: KLOZ 231753Z AUTO 14009KT 9SM -RA OVC065 14/08 A2983 RMK AO2 SLP098 P0001 60001 T01440083 10144 20061 58043
Loading
Personal Weather Stations






























Interactive Weather Map New forecast layout! Learn more

10-Day Weather Forecast

Advertisements
Track Severe Weather on mobile